Daffan, Texas
Current Conditions -  °F | °C
As of 7:35 PM on Sunday 23 Nov 2014 (Local Time) from KEDC Reporting Station
Broken Clouds Broken Clouds  
Wind Chill: 19°   Ceiling: 9000
Heat Index: 19°   Visibility: 10mi
Dew Point:   Wind: 5mph
Humidity: 43%   Direction: 260°W
Pressure: 29.64"   Gusts: NA
Location:  30.352°N, 97.5205°W
Report Text: KEDC 240135Z AUTO 26004KT 10SM SCT050 BKN090 19/06 A2964 RMK AO2
Loading
Personal Weather Stations






























Interactive Weather Map New forecast layout! Learn more

10-Day Weather Forecast

Advertisements
Track Severe Weather on mobile